Time;durP1;ratioP1;P1;durP2;ratioP2;P2;SDS_P1;SDS_P2;PMS_P1;PMS_P2;Temp;Humidity;BMP_temperature;BMP_pressure;BME280_temperature;BME280_humidity;BME280_pressure;Samples;Min_cycle;Max_cycle;Signal;HPM_P1;HPM_P2
2023/08/25 00:01:52;;;;;;;12.55;6.78;;;;;;;-144.73;100.00;54391.28;4999300;28;20038;-73
2023/08/25 00:04:18;;;;;;;10.57;7.07;;;;;;;-144.73;100.00;54370.75;4991842;28;20030;-73
2023/08/25 00:06:43;;;;;;;9.52;6.78;;;;;;;-144.73;100.00;54399.50;4997757;28;20033;-72
2023/08/25 00:09:09;;;;;;;13.10;6.78;;;;;;;-144.73;100.00;54348.19;4991678;28;20026;-72
2023/08/25 00:11:34;;;;;;;11.02;7.10;;;;;;;-144.73;100.00;54407.69;4990452;28;20022;-72
2023/08/25 00:14:00;;;;;;;13.15;7.55;;;;;;;-144.73;100.00;54366.66;4992277;28;20022;-72
2023/08/25 00:16:25;;;;;;;11.30;7.13;;;;;;;-144.73;100.00;54378.97;5000059;28;20030;-72
2023/08/25 00:18:51;;;;;;;10.20;7.00;;;;;;;-144.73;100.00;54422.06;4994941;28;20034;-73
2023/08/25 00:21:16;;;;;;;9.27;6.80;;;;;;;-144.73;100.00;54383.06;5004046;28;20046;-73
2023/08/25 00:23:42;;;;;;;14.75;6.78;;;;;;;-144.73;100.00;54387.19;4991556;28;20619;-72
2023/08/25 00:26:08;;;;;;;13.63;7.22;;;;;;;-144.73;100.00;54407.69;4996504;28;20052;-73
2023/08/25 00:28:33;;;;;;;13.10;7.63;;;;;;;-144.73;100.00;54407.69;4996430;28;20072;-72
2023/08/25 00:30:58;;;;;;;12.82;7.93;;;;;;;-144.73;100.00;54422.06;4997892;28;20061;-72
2023/08/25 00:33:27;;;;;;;10.30;7.32;;;;;;;-144.73;100.00;54381.00;4991779;28;20036;-73
2023/08/25 00:35:52;;;;;;;12.68;7.43;;;;;;;-144.73;100.00;54374.84;5002539;28;20037;-73
2023/08/25 00:38:17;;;;;;;12.23;7.53;;;;;;;-144.73;100.00;54381.00;5000860;28;20033;-72
2023/08/25 00:40:42;;;;;;;12.85;7.43;;;;;;;-144.73;100.00;54395.38;4989647;28;20140;-72
2023/08/25 00:43:08;;;;;;;11.20;7.45;;;;;;;-144.73;100.00;54378.97;4990559;28;20034;-72
2023/08/25 00:45:39;;;;;;;12.68;8.25;;;;;;;-144.73;100.00;54358.44;5006687;28;20030;-73
2023/08/25 00:48:05;;;;;;;9.73;7.38;;;;;;;-144.73;100.00;54417.97;4997648;28;20040;-73
2023/08/25 00:50:31;;;;;;;12.15;7.80;;;;;;;-144.73;100.00;54374.84;4998188;28;20113;-73
2023/08/25 00:52:57;;;;;;;13.23;7.82;;;;;;;-144.73;100.00;54370.75;4985768;28;20101;-72
2023/08/25 00:55:22;;;;;;;12.48;7.70;;;;;;;-144.73;100.00;54362.53;4999048;28;20030;-72
2023/08/25 00:57:48;;;;;;;17.13;8.65;;;;;;;-144.73;100.00;54399.50;5002102;28;20025;-73
2023/08/25 01:00:13;;;;;;;14.35;8.05;;;;;;;-144.73;100.00;54366.66;4999422;28;20042;-72
2023/08/25 01:02:39;;;;;;;18.65;8.05;;;;;;;-144.73;100.00;54411.81;5003971;28;20014;-74
2023/08/25 01:05:05;;;;;;;14.38;8.40;;;;;;;-144.73;100.00;54370.75;4995778;28;20042;-72
2023/08/25 01:07:31;;;;;;;10.90;8.55;;;;;;;-144.73;100.00;54387.19;4995139;28;20022;-72
2023/08/25 01:09:56;;;;;;;15.60;9.02;;;;;;;-144.73;100.00;54407.69;5000031;28;20405;-72
2023/08/25 01:12:39;;;;;;;17.55;9.48;;;;;;;-144.73;100.00;54383.06;4998120;28;20030;-73
2023/08/25 01:15:12;;;;;;;15.60;9.35;;;;;;;-144.73;100.00;54374.84;4996449;28;20030;-73
2023/08/25 01:17:57;;;;;;;10.38;8.13;;;;;;;-144.73;100.00;54411.81;4989126;28;20034;-73
2023/08/25 01:20:24;;;;;;;11.73;8.57;;;;;;;-144.73;100.00;54411.81;4998367;28;20038;-72
2023/08/25 01:23:03;;;;;;;11.68;8.55;;;;;;;-144.73;100.00;54378.97;5005870;28;20033;-73
2023/08/25 01:25:30;;;;;;;22.10;9.98;;;;;;;-144.73;100.00;54420.00;5003341;28;20053;-73
2023/08/25 01:28:03;;;;;;;15.07;8.77;;;;;;;-144.73;100.00;54415.91;4997071;28;20051;-73
2023/08/25 01:30:35;;;;;;;14.38;8.98;;;;;;;-144.73;100.00;54395.38;5002429;28;20041;-73
2023/08/25 01:33:03;;;;;;;10.85;8.60;;;;;;;-144.73;100.00;54399.50;5012625;28;20103;-73
2023/08/25 01:36:02;;;;;;;19.10;8.93;;;;;;;-144.73;100.00;54407.69;5007416;28;20133;-73
2023/08/25 01:38:34;;;;;;;20.38;9.52;;;;;;;-144.73;100.00;54387.19;4999468;28;20026;-74
2023/08/25 01:40:59;;;;;;;12.55;8.85;;;;;;;-144.73;100.00;54399.50;5000618;28;20048;-73
2023/08/25 01:43:28;;;;;;;16.92;9.50;;;;;;;-144.73;100.00;54366.66;4993180;28;20109;-72
2023/08/25 01:45:56;;;;;;;16.23;9.98;;;;;;;-144.73;100.00;54354.34;4992206;28;20038;-73
2023/08/25 01:48:23;;;;;;;12.93;10.07;;;;;;;-144.73;100.00;54395.38;4993509;28;20029;-73
2023/08/25 01:50:49;;;;;;;15.32;10.45;;;;;;;-144.73;100.00;54422.06;4991427;28;20434;-73
2023/08/25 01:53:14;;;;;;;21.77;9.50;;;;;;;-144.73;100.00;54397.44;4991916;28;20061;-73
2023/08/25 01:55:40;;;;;;;18.50;10.73;;;;;;;-144.73;100.00;54387.19;5002984;28;20030;-72
2023/08/25 01:58:05;;;;;;;15.95;9.07;;;;;;;-144.73;100.00;54407.69;5004487;28;20030;-73
2023/08/25 02:00:30;;;;;;;14.63;10.50;;;;;;;-144.73;100.00;54407.69;4998838;28;20045;-72
2023/08/25 02:02:56;;;;;;;12.18;10.02;;;;;;;-144.73;100.00;54391.28;4998617;28;20396;-74
2023/08/25 02:05:22;;;;;;;15.38;10.25;;;;;;;-144.73;100.00;54399.50;5008969;28;20048;-73
2023/08/25 02:07:47;;;;;;;18.15;10.18;;;;;;;-144.73;100.00;54415.91;5005385;28;20077;-73
2023/08/25 02:10:13;;;;;;;18.00;10.55;;;;;;;-144.73;100.00;54366.66;4992366;28;20038;-73
2023/08/25 02:12:38;;;;;;;15.57;11.05;;;;;;;-144.73;100.00;54407.69;5006892;28;20018;-73
2023/08/25 02:15:04;;;;;;;15.05;11.55;;;;;;;-144.73;100.00;54407.69;4999323;28;20564;-72
2023/08/25 02:17:29;;;;;;;17.98;11.65;;;;;;;-144.73;100.00;54366.66;5009606;28;20022;-72
2023/08/25 02:19:55;;;;;;;21.13;14.00;;;;;;;-144.73;100.00;54424.13;4998951;28;20035;-72
2023/08/25 02:22:20;;;;;;;15.85;12.95;;;;;;;-144.73;100.00;54381.00;5000102;28;20401;-72
2023/08/25 02:24:46;;;;;;;25.60;15.57;;;;;;;-144.73;100.00;54407.69;4985267;28;20038;-73
2023/08/25 02:27:11;;;;;;;23.77;15.50;;;;;;;-144.73;100.00;54378.97;4999345;28;20030;-72
2023/08/25 02:29:36;;;;;;;25.88;14.82;;;;;;;-144.73;100.00;54411.81;5008147;28;20050;-72
2023/08/25 02:32:02;;;;;;;29.70;17.40;;;;;;;-144.73;100.00;54399.50;5003136;28;20030;-73
2023/08/25 02:34:28;;;;;;;32.80;18.10;;;;;;;-144.73;100.00;54407.69;5008931;28;20038;-73
2023/08/25 02:36:54;;;;;;;25.48;16.38;;;;;;;-144.73;100.00;54370.75;5004444;28;20022;-72
2023/08/25 02:39:19;;;;;;;24.60;15.57;;;;;;;-144.73;100.00;54399.50;5001162;28;20025;-72
2023/08/25 02:41:44;;;;;;;28.30;16.45;;;;;;;-144.73;100.00;54407.69;4997634;28;20025;-72
2023/08/25 02:44:10;;;;;;;33.58;15.32;;;;;;;-144.73;100.00;54383.06;5005853;28;20038;-73
2023/08/25 02:46:35;;;;;;;22.80;16.17;;;;;;;-144.73;100.00;54407.69;4992060;28;20018;-72
2023/08/25 02:49:01;;;;;;;31.50;17.63;;;;;;;-144.73;100.00;54393.34;5006987;28;20033;-73
2023/08/25 02:51:26;;;;;;;25.05;17.45;;;;;;;-144.73;100.00;54415.91;5002376;28;20072;-72
2023/08/25 02:53:51;;;;;;;33.28;16.02;;;;;;;-144.73;100.00;54420.00;4994029;28;20014;-73
2023/08/25 02:56:16;;;;;;;32.90;17.08;;;;;;;-144.73;100.00;54391.28;4991336;28;20037;-73
2023/08/25 02:58:42;;;;;;;27.17;17.55;;;;;;;-144.73;100.00;54407.69;5001642;28;20025;-73
2023/08/25 03:01:11;;;;;;;34.47;16.92;;;;;;;-144.73;100.00;54426.16;5001485;28;20080;-73
2023/08/25 03:03:37;;;;;;;29.35;16.65;;;;;;;-144.73;100.00;54415.91;4995128;28;20037;-74
2023/08/25 03:06:02;;;;;;;34.38;18.77;;;;;;;-144.73;100.00;54407.69;4994793;28;20069;-72
2023/08/25 03:08:27;;;;;;;36.42;18.00;;;;;;;-144.73;100.00;54407.69;4990813;28;20026;-73
2023/08/25 03:10:53;;;;;;;33.20;17.52;;;;;;;-144.73;100.00;54383.06;4995939;28;20382;-72
2023/08/25 03:13:19;;;;;;;26.45;17.10;;;;;;;-144.73;100.00;54415.91;5006978;28;20088;-72
2023/08/25 03:15:48;;;;;;;33.85;18.50;;;;;;;-144.73;100.00;54438.50;4996515;28;20099;-73
2023/08/25 03:18:16;;;;;;;30.77;19.65;;;;;;;-144.73;100.00;54413.84;4999524;28;20030;-73
2023/08/25 03:20:41;;;;;;;29.45;18.88;;;;;;;-144.73;100.00;54407.69;4994185;28;20033;-72
2023/08/25 03:23:07;;;;;;;31.05;18.88;;;;;;;-144.73;100.00;54420.00;4997638;28;20508;-72
2023/08/25 03:25:36;;;;;;;31.13;19.92;;;;;;;-144.73;100.00;54428.22;4997395;28;20046;-73
2023/08/25 03:28:01;;;;;;;32.85;19.65;;;;;;;-144.73;100.00;54391.28;5003956;28;20034;-73
2023/08/25 03:30:27;;;;;;;30.20;17.92;;;;;;;-144.73;100.00;54420.00;4992229;28;20037;-73
2023/08/25 03:32:52;;;;;;;43.65;19.00;;;;;;;-144.73;100.00;54430.28;4998725;28;20026;-73
2023/08/25 03:35:17;;;;;;;33.03;20.88;;;;;;;-144.73;100.00;54383.06;4990275;28;20042;-73
2023/08/25 03:37:42;;;;;;;33.10;20.75;;;;;;;-144.73;100.00;54463.13;5001309;28;20088;-73
2023/08/25 03:40:10;;;;;;;42.63;20.63;;;;;;;-144.73;100.00;54448.75;5000875;28;20026;-73
2023/08/25 03:42:35;;;;;;;43.20;20.95;;;;;;;-144.73;100.00;54456.97;5000151;28;20057;-73
2023/08/25 03:45:00;;;;;;;39.42;22.40;;;;;;;-144.73;100.00;54415.91;4995523;28;20058;-72
2023/08/25 03:47:26;;;;;;;30.35;21.77;;;;;;;-144.73;100.00;54411.81;4997272;28;20042;-73
2023/08/25 03:49:51;;;;;;;36.83;21.50;;;;;;;-144.73;100.00;54424.13;5001152;28;20468;-73
2023/08/25 03:52:16;;;;;;;38.60;22.83;;;;;;;-144.73;100.00;54415.91;4989682;28;20015;-73
2023/08/25 03:54:42;;;;;;;36.65;23.75;;;;;;;-144.73;100.00;54442.59;4990110;28;20036;-72
2023/08/25 03:57:08;;;;;;;40.28;23.92;;;;;;;-144.73;100.00;54440.53;4997791;28;20036;-72
2023/08/25 03:59:34;;;;;;;42.22;23.58;;;;;;;-144.73;100.00;54362.53;4988297;28;20038;-74
2023/08/25 04:02:01;;;;;;;40.88;24.88;;;;;;;-144.73;100.00;54440.53;5002678;28;20026;-72
2023/08/25 04:04:27;;;;;;;44.13;24.40;;;;;;;-144.73;100.00;54391.28;4997568;28;20088;-73
2023/08/25 04:06:53;;;;;;;35.88;23.52;;;;;;;-144.73;100.00;54415.91;4989996;28;20031;-73
2023/08/25 04:09:19;;;;;;;41.55;25.60;;;;;;;-144.73;100.00;54420.00;4997075;28;20057;-72
2023/08/25 04:11:45;;;;;;;41.47;26.27;;;;;;;-144.73;100.00;54432.31;4992193;28;20093;-73
2023/08/25 04:14:10;;;;;;;37.00;25.25;;;;;;;-144.73;100.00;54430.28;4996517;28;20021;-73
2023/08/25 04:16:36;;;;;;;39.95;26.23;;;;;;;-144.73;100.00;54395.38;5001446;28;20156;-73
2023/08/25 04:19:01;;;;;;;46.55;27.15;;;;;;;-144.73;100.00;54420.00;5001241;28;20039;-72
2023/08/25 04:21:26;;;;;;;44.05;26.75;;;;;;;-144.73;100.00;54407.69;5000949;28;20046;-72
2023/08/25 04:23:51;;;;;;;44.20;28.77;;;;;;;-144.73;100.00;54407.69;5001335;28;20034;-73
2023/08/25 04:26:17;;;;;;;44.92;27.88;;;;;;;-144.73;100.00;54430.28;4990006;28;20089;-73
2023/08/25 04:28:42;;;;;;;51.47;30.15;;;;;;;-144.73;100.00;54442.59;5000764;28;20090;-72
2023/08/25 04:31:07;;;;;;;42.38;27.92;;;;;;;-144.73;100.00;54424.13;4991601;28;20049;-74
2023/08/25 04:33:33;;;;;;;44.35;27.85;;;;;;;-144.73;100.00;54407.69;4988850;28;20026;-73
2023/08/25 04:35:58;;;;;;;46.65;29.23;;;;;;;-144.73;100.00;54407.69;4988292;28;20034;-73
2023/08/25 04:38:23;;;;;;;44.22;30.17;;;;;;;-144.73;100.00;54436.44;4987897;28;20075;-72
2023/08/25 04:40:49;;;;;;;48.22;30.45;;;;;;;-144.73;100.00;54399.50;4988669;28;20030;-71
2023/08/25 04:43:14;;;;;;;46.10;30.40;;;;;;;-144.73;100.00;54444.66;4994721;28;20034;-72
2023/08/25 04:45:39;;;;;;;48.80;29.70;;;;;;;-144.73;100.00;54436.44;4989922;28;20169;-71
2023/08/25 04:48:05;;;;;;;42.13;29.90;;;;;;;-144.73;100.00;54448.75;4992416;28;20026;-72
2023/08/25 04:50:30;;;;;;;42.72;29.95;;;;;;;-144.73;100.00;54428.22;5004184;28;20049;-74
2023/08/25 04:52:55;;;;;;;53.70;31.67;;;;;;;-144.73;100.00;54438.50;5006331;28;20030;-74
2023/08/25 04:55:20;;;;;;;47.97;30.80;;;;;;;-144.73;100.00;54417.97;4994797;28;20085;-71
2023/08/25 04:57:46;;;;;;;44.97;31.30;;;;;;;-144.73;100.00;54452.84;5002443;28;20022;-72
2023/08/25 05:00:12;;;;;;;47.80;31.25;;;;;;;-144.73;100.00;54452.84;5008413;28;20080;-71
2023/08/25 05:02:37;;;;;;;46.80;31.67;;;;;;;-144.73;100.00;54463.13;5004110;28;20022;-73
2023/08/25 05:05:05;;;;;;;45.90;32.08;;;;;;;-144.73;100.00;54446.69;4998857;28;20057;-72
2023/08/25 05:07:30;;;;;;;52.92;34.20;;;;;;;-144.73;100.00;54446.69;5005382;28;20049;-72
2023/08/25 05:09:55;;;;;;;49.30;33.05;;;;;;;-144.73;100.00;54422.06;5001140;28;20065;-72
2023/08/25 05:12:21;;;;;;;46.85;32.28;;;;;;;-144.73;100.00;54444.66;5000580;28;20034;-72
2023/08/25 05:14:46;;;;;;;49.80;34.60;;;;;;;-144.73;100.00;54413.84;5005306;28;20034;-73
2023/08/25 05:17:11;;;;;;;50.90;33.10;;;;;;;-144.73;100.00;54399.50;4997976;28;20141;-72
2023/08/25 05:19:37;;;;;;;56.70;33.75;;;;;;;-144.73;100.00;54420.00;4995972;28;20048;-72
2023/08/25 05:22:02;;;;;;;60.90;32.95;;;;;;;-144.73;100.00;54409.75;5005573;28;20023;-71
2023/08/25 05:24:28;;;;;;;52.13;34.30;;;;;;;-144.73;100.00;54469.28;4994812;28;20604;-73
2023/08/25 05:26:54;;;;;;;65.03;34.35;;;;;;;-144.73;100.00;54446.69;5008265;28;20030;-74
2023/08/25 05:29:25;;;;;;;52.60;32.88;;;;;;;-144.73;100.00;54448.75;5000835;28;20026;-74
2023/08/25 05:31:51;;;;;;;52.72;36.22;;;;;;;-144.73;100.00;54428.22;5003099;28;20477;-72
2023/08/25 05:34:17;;;;;;;54.63;34.55;;;;;;;-144.73;100.00;54479.53;5001027;28;20026;-73
2023/08/25 05:36:43;;;;;;;61.28;37.53;;;;;;;-144.73;100.00;54407.69;5004034;28;20033;-72
2023/08/25 05:39:08;;;;;;;62.95;40.08;;;;;;;-144.73;100.00;54432.31;4991640;28;20030;-72
2023/08/25 05:41:34;;;;;;;66.90;37.88;;;;;;;-144.73;100.00;54424.13;4999860;28;20026;-72
2023/08/25 05:44:00;;;;;;;59.42;40.20;;;;;;;-144.73;100.00;54452.84;4996700;28;20026;-72
2023/08/25 05:46:26;;;;;;;65.20;41.00;;;;;;;-144.73;100.00;54461.06;4997963;28;20038;-72
2023/08/25 05:48:51;;;;;;;58.67;38.22;;;;;;;-144.73;100.00;54428.22;4998559;28;20044;-73
2023/08/25 05:51:17;;;;;;;68.82;39.90;;;;;;;-144.73;100.00;54424.13;5018277;28;20034;-73
2023/08/25 05:53:42;;;;;;;64.13;38.45;;;;;;;-144.73;100.00;54448.75;5009615;28;20495;-73
2023/08/25 05:56:08;;;;;;;62.35;38.72;;;;;;;-144.73;100.00;54411.81;5007022;28;20447;-73
2023/08/25 05:58:33;;;;;;;54.95;37.90;;;;;;;-144.73;100.00;54444.66;5000939;28;20026;-74
2023/08/25 06:00:59;;;;;;;62.05;39.78;;;;;;;-144.73;100.00;54432.31;4998657;28;20049;-73
2023/08/25 06:03:25;;;;;;;50.42;35.00;;;;;;;-144.73;100.00;54454.91;5005253;28;20108;-73
2023/08/25 06:05:53;;;;;;;47.85;34.95;;;;;;;-144.73;100.00;54411.81;5002204;28;20030;-73
2023/08/25 06:08:22;;;;;;;58.97;37.70;;;;;;;-144.73;100.00;54420.00;4998283;28;20022;-73
2023/08/25 06:10:49;;;;;;;58.33;37.47;;;;;;;-144.73;100.00;54428.22;5000037;28;20030;-73
2023/08/25 06:13:15;;;;;;;55.97;34.08;;;;;;;-144.73;100.00;54461.06;5004116;28;20056;-73
2023/08/25 06:15:40;;;;;;;55.92;34.75;;;;;;;-144.73;100.00;54407.69;5008496;28;20033;-73
2023/08/25 06:18:05;;;;;;;54.72;36.28;;;;;;;-144.73;100.00;54444.66;5022879;28;20021;-73
2023/08/25 06:20:31;;;;;;;56.45;36.20;;;;;;;-144.73;100.00;54428.22;5002358;28;20068;-75
2023/08/25 06:22:57;;;;;;;59.97;36.72;;;;;;;-144.73;100.00;54442.59;5013168;28;20026;-73
2023/08/25 06:25:23;;;;;;;52.03;36.67;;;;;;;-144.73;100.00;54407.69;4998423;28;20064;-72
2023/08/25 06:27:48;;;;;;;56.50;36.10;;;;;;;-144.73;100.00;54432.31;5019980;28;20021;-73
2023/08/25 06:30:14;;;;;;;58.55;37.47;;;;;;;-144.73;100.00;54444.66;4999365;28;20038;-73
2023/08/25 06:32:40;;;;;;;51.72;36.40;;;;;;;-144.73;100.00;54424.13;5000539;28;20025;-74
2023/08/25 06:35:06;;;;;;;58.00;37.95;;;;;;;-144.73;100.00;54444.66;5019199;28;20038;-73
2023/08/25 06:37:31;;;;;;;52.05;37.67;;;;;;;-144.73;100.00;54446.69;5024864;28;20057;-73
2023/08/25 06:39:56;;;;;;;54.33;34.47;;;;;;;-144.73;100.00;54448.75;5013629;28;20037;-73
2023/08/25 06:42:22;;;;;;;51.50;35.40;;;;;;;-144.73;100.00;54432.31;4998173;28;20068;-73
2023/08/25 06:44:47;;;;;;;52.60;35.38;;;;;;;-144.73;100.00;54422.06;4993811;28;20034;-73
2023/08/25 06:47:12;;;;;;;58.55;35.33;;;;;;;-144.73;100.00;54440.53;4993918;28;20091;-74
2023/08/25 06:49:37;;;;;;;50.55;34.70;;;;;;;-144.73;100.00;54413.84;4997726;28;20034;-73
2023/08/25 06:52:05;;;;;;;51.50;34.05;;;;;;;-144.73;100.00;54424.13;5002986;28;20029;-73
2023/08/25 06:54:31;;;;;;;52.20;36.58;;;;;;;-144.73;100.00;54432.31;5005652;28;20091;-73
2023/08/25 06:56:56;;;;;;;50.88;35.22;;;;;;;-144.73;100.00;54436.44;5000171;28;20017;-73
2023/08/25 06:59:22;;;;;;;46.97;35.00;;;;;;;-144.73;100.00;54440.53;5017340;28;20033;-73
2023/08/25 07:01:49;;;;;;;44.08;31.75;;;;;;;-144.73;100.00;54454.91;5000966;28;20030;-73
2023/08/25 07:04:14;;;;;;;60.53;35.65;;;;;;;-144.73;100.00;54469.28;5025243;28;20026;-73
2023/08/25 07:06:40;;;;;;;51.95;34.55;;;;;;;-144.73;100.00;54461.06;5010933;28;20025;-73
2023/08/25 07:09:06;;;;;;;47.80;32.92;;;;;;;-144.73;100.00;54420.00;4999958;28;20028;-73
2023/08/25 07:11:31;;;;;;;48.25;31.80;;;;;;;-144.73;100.00;54444.66;5004126;28;20017;-73
2023/08/25 07:13:56;;;;;;;50.17;33.03;;;;;;;-144.73;100.00;54440.53;5004279;28;20017;-73
2023/08/25 07:16:22;;;;;;;48.70;30.77;;;;;;;-144.73;100.00;54436.44;5007834;28;20030;-73
2023/08/25 07:18:47;;;;;;;44.83;32.25;;;;;;;-144.73;100.00;54448.75;5021655;28;20026;-73
2023/08/25 07:21:12;;;;;;;47.58;31.85;;;;;;;-144.73;100.00;54436.44;4994484;28;20055;-73
2023/08/25 07:23:41;;;;;;;43.28;30.83;;;;;;;-144.73;100.00;54428.22;4994334;28;20045;-73
2023/08/25 07:26:06;;;;;;;40.17;28.80;;;;;;;-144.73;100.00;54387.19;5017553;28;20034;-73
2023/08/25 07:28:31;;;;;;;46.75;28.90;;;;;;;-144.73;100.00;54428.22;5000212;28;20036;-73
2023/08/25 07:30:57;;;;;;;45.40;27.75;;;;;;;-144.73;100.00;54454.91;5006414;28;20073;-74
2023/08/25 07:33:23;;;;;;;48.47;28.45;;;;;;;-144.73;100.00;54440.53;5007551;28;20029;-73
2023/08/25 07:35:48;;;;;;;42.60;30.05;;;;;;;-144.73;100.00;54413.84;4999593;28;20060;-73
2023/08/25 07:38:14;;;;;;;44.58;26.63;;;;;;;-144.73;100.00;54438.50;5007706;28;20053;-73
2023/08/25 07:40:39;;;;;;;39.22;27.67;;;;;;;-144.73;100.00;54411.81;5024882;28;20029;-75
2023/08/25 07:43:06;;;;;;;37.35;25.42;;;;;;;-144.73;100.00;54452.84;5014373;28;20057;-75
2023/08/25 07:45:32;;;;;;;39.42;26.00;;;;;;;-144.73;100.00;54436.44;4996657;28;20038;-75
2023/08/25 07:48:01;;;;;;;42.10;24.85;;;;;;;-144.73;100.00;54395.38;5003049;28;20029;-75
2023/08/25 07:50:28;;;;;;;36.40;23.77;;;;;;;-144.73;100.00;54432.31;4998324;28;20109;-75
2023/08/25 07:52:54;;;;;;;40.17;25.65;;;;;;;-144.73;100.00;54407.69;4995799;28;20024;-75
2023/08/25 07:55:20;;;;;;;42.78;26.20;;;;;;;-144.73;100.00;54448.75;4993345;28;20025;-76
2023/08/25 07:57:48;;;;;;;46.92;24.95;;;;;;;-144.73;100.00;54452.84;4998487;28;20022;-75
2023/08/25 08:00:16;;;;;;;39.92;25.02;;;;;;;-144.73;100.00;54444.66;4994042;28;20041;-71
2023/08/25 08:02:48;;;;;;;37.55;26.00;;;;;;;-144.73;100.00;54440.53;4994960;28;20049;-71
2023/08/25 08:05:16;;;;;;;40.20;25.15;;;;;;;-144.73;100.00;54424.13;4998489;28;20041;-71
2023/08/25 08:07:42;;;;;;;42.10;25.30;;;;;;;-144.73;100.00;54440.53;5014229;28;20048;-72
2023/08/25 08:10:09;;;;;;;33.15;21.15;;;;;;;-144.73;100.00;54444.66;4997372;28;20037;-71
2023/08/25 08:12:34;;;;;;;37.10;24.73;;;;;;;-144.73;100.00;54415.91;4998475;28;20029;-72
2023/08/25 08:15:00;;;;;;;45.97;27.17;;;;;;;-144.73;100.00;54391.28;4999859;28;20043;-72
2023/08/25 08:17:25;;;;;;;40.20;26.83;;;;;;;-144.73;100.00;54444.66;5000104;28;20025;-72
2023/08/25 08:19:51;;;;;;;36.95;25.73;;;;;;;-144.73;100.00;54436.44;5005045;28;20034;-72
2023/08/25 08:22:17;;;;;;;41.03;27.85;;;;;;;-144.73;100.00;54440.53;4998037;28;20028;-72
2023/08/25 08:24:49;;;;;;;41.40;28.63;;;;;;;-144.73;100.00;54434.38;4994711;28;20038;-73
2023/08/25 08:27:16;;;;;;;41.58;28.30;;;;;;;-144.73;100.00;54407.69;4985884;28;20096;-72
2023/08/25 08:29:42;;;;;;;37.53;25.50;;;;;;;-144.73;100.00;54417.97;4991367;28;20125;-72
2023/08/25 08:32:08;;;;;;;41.10;27.95;;;;;;;-144.73;100.00;54444.66;4992659;28;20042;-73
2023/08/25 08:34:33;;;;;;;41.40;28.02;;;;;;;-144.73;100.00;54376.91;5009958;28;20056;-73
2023/08/25 08:36:58;;;;;;;42.92;28.70;;;;;;;-144.73;100.00;54436.44;4992680;28;20017;-72
2023/08/25 08:39:24;;;;;;;44.75;27.45;;;;;;;-144.73;100.00;54407.69;4991854;28;20700;-73
2023/08/25 08:41:52;;;;;;;44.45;29.75;;;;;;;-144.73;100.00;54428.22;4993002;28;20021;-73
2023/08/25 08:44:18;;;;;;;44.58;28.75;;;;;;;-144.73;100.00;54456.97;5010250;28;20030;-73
2023/08/25 08:46:45;;;;;;;46.55;29.05;;;;;;;-144.73;100.00;54399.50;4992980;28;20033;-73
2023/08/25 08:49:11;;;;;;;50.83;29.00;;;;;;;-144.73;100.00;54493.91;4991979;28;20165;-72
2023/08/25 08:51:38;;;;;;;43.22;29.50;;;;;;;-144.73;100.00;54452.84;4994318;28;20113;-73
2023/08/25 08:54:07;;;;;;;41.45;27.73;;;;;;;-144.73;100.00;54407.69;4992073;28;20022;-73
2023/08/25 08:56:34;;;;;;;42.30;27.25;;;;;;;-144.73;100.00;54409.75;5009983;28;20072;-73
2023/08/25 08:59:00;;;;;;;40.05;26.23;;;;;;;-144.73;100.00;54389.22;4991384;28;20049;-73
2023/08/25 09:01:27;;;;;;;41.53;25.77;;;;;;;-144.73;100.00;54383.06;4995385;28;20037;-73
2023/08/25 09:03:53;;;;;;;36.97;24.35;;;;;;;-144.73;100.00;54452.84;4993711;28;20023;-73
2023/08/25 09:06:19;;;;;;;40.10;25.60;;;;;;;-144.73;100.00;54397.44;5006532;28;20030;-72
2023/08/25 09:08:46;;;;;;;33.90;22.33;;;;;;;-144.73;100.00;54407.69;4995027;28;20037;-73
2023/08/25 09:11:15;;;;;;;35.15;22.63;;;;;;;-144.73;100.00;54448.75;5011874;28;20036;-73
2023/08/25 09:13:52;;;;;;;34.00;20.83;;;;;;;-144.73;100.00;54399.50;4995559;28;20373;-73
2023/08/25 09:16:18;;;;;;;44.20;22.50;;;;;;;-144.73;100.00;54436.44;4995771;28;20103;-73
2023/08/25 09:18:46;;;;;;;31.05;22.95;;;;;;;-144.73;100.00;54407.69;4999939;28;20060;-73
2023/08/25 09:21:21;;;;;;;34.28;20.92;;;;;;;-144.73;100.00;54428.22;5009854;28;20038;-73
2023/08/25 09:23:54;;;;;;;27.30;17.92;;;;;;;-144.73;100.00;54407.69;4997423;28;20044;-73
2023/08/25 09:26:20;;;;;;;30.38;19.75;;;;;;;-144.73;100.00;54393.34;5008729;28;20034;-73
2023/08/25 09:28:46;;;;;;;33.83;21.65;;;;;;;-144.73;100.00;54407.69;4999612;28;20013;-73
2023/08/25 09:31:22;;;;;;;34.67;22.65;;;;;;;-144.73;100.00;54415.91;4993871;28;20037;-73
2023/08/25 09:33:50;;;;;;;29.40;20.00;;;;;;;-144.73;100.00;54424.13;4998596;28;20469;-73
2023/08/25 09:36:15;;;;;;;32.85;22.23;;;;;;;-144.73;100.00;54436.44;5008224;28;20040;-73
2023/08/25 09:38:46;;;;;;;30.90;20.08;;;;;;;-144.73;100.00;54387.19;4993840;28;20026;-72
2023/08/25 09:41:11;;;;;;;36.20;20.67;;;;;;;-144.73;100.00;54415.91;4995437;28;20141;-73
2023/08/25 09:43:39;;;;;;;33.05;22.58;;;;;;;-144.73;100.00;54432.31;5008639;28;20026;-72
2023/08/25 09:46:08;;;;;;;29.92;20.17;;;;;;;-144.73;100.00;54387.19;5005727;28;20038;-73
2023/08/25 09:48:34;;;;;;;32.10;18.65;;;;;;;-144.73;100.00;54461.06;4996752;28;20523;-73
2023/08/25 09:51:00;;;;;;;32.38;18.40;;;;;;;-144.73;100.00;54428.22;4989813;28;20041;-73
2023/08/25 09:53:33;;;;;;;30.48;19.95;;;;;;;-144.73;100.00;54407.69;4999767;28;20018;-73
2023/08/25 09:56:06;;;;;;;32.03;18.38;;;;;;;-144.73;100.00;54420.00;4988987;28;20042;-73
2023/08/25 09:58:31;;;;;;;40.22;17.35;;;;;;;-144.73;100.00;54407.69;4985967;28;20464;-73
2023/08/25 10:00:58;;;;;;;26.52;16.30;;;;;;;-144.73;100.00;54424.13;4985525;28;20040;-72
2023/08/25 10:03:24;;;;;;;27.98;17.70;;;;;;;-144.73;100.00;54428.22;4990746;28;20045;-73
2023/08/25 10:05:49;;;;;;;30.15;17.77;;;;;;;-144.73;100.00;54407.69;4990696;28;20088;-73
2023/08/25 10:08:16;;;;;;;28.00;17.58;;;;;;;-144.73;100.00;54448.75;4987459;28;20037;-72
2023/08/25 10:10:44;;;;;;;31.50;17.60;;;;;;;-144.73;100.00;54434.38;4984873;28;20037;-72
2023/08/25 10:13:14;;;;;;;27.73;15.50;;;;;;;-144.73;100.00;54448.75;4999695;28;20044;-73
2023/08/25 10:15:42;;;;;;;27.63;16.35;;;;;;;-144.73;100.00;54438.50;4991160;28;20080;-72
2023/08/25 10:18:08;;;;;;;27.30;15.48;;;;;;;-144.73;100.00;54456.97;5000875;28;20386;-72
2023/08/25 10:20:36;;;;;;;30.45;16.02;;;;;;;-144.73;100.00;54407.69;4997959;28;20040;-73
2023/08/25 10:23:07;;;;;;;29.42;15.57;;;;;;;-144.73;100.00;54452.84;4985893;28;20036;-72
2023/08/25 10:25:32;;;;;;;28.63;15.82;;;;;;;-144.73;100.00;54436.44;4989534;28;20121;-73
2023/08/25 10:28:00;;;;;;;29.13;16.38;;;;;;;-144.73;100.00;54417.97;4985617;28;20105;-72
2023/08/25 10:30:27;;;;;;;20.02;16.13;;;;;;;-144.73;100.00;54444.66;4985456;28;20515;-72
2023/08/25 10:33:11;;;;;;;26.50;17.55;;;;;;;-144.73;100.00;54407.69;4985753;28;20053;-71
2023/08/25 10:35:40;;;;;;;25.92;16.80;;;;;;;-144.73;100.00;54385.13;4987473;28;20440;-72
2023/08/25 10:38:18;;;;;;;31.05;16.08;;;;;;;-144.73;100.00;54374.84;4989152;28;20542;-71
2023/08/25 10:40:51;;;;;;;21.45;13.70;;;;;;;-144.73;100.00;54428.22;5003264;28;20096;-72
2023/08/25 10:43:30;;;;;;;24.92;17.58;;;;;;;-144.73;100.00;54378.97;4990697;28;20036;-72
2023/08/25 10:45:55;;;;;;;29.15;17.73;;;;;;;-144.73;100.00;54444.66;4985367;28;20042;-72
2023/08/25 10:48:24;;;;;;;27.65;17.00;;;;;;;-144.73;100.00;54424.13;4984911;28;20025;-72
2023/08/25 10:50:52;;;;;;;31.33;18.48;;;;;;;-144.73;100.00;54440.53;4999599;28;20121;-72
2023/08/25 10:53:36;;;;;;;27.73;16.00;;;;;;;-144.73;100.00;54438.50;4990127;28;20025;-72